sensor_id;sensor_type;location;lat;lon;timestamp;pressure;altitude;pressure_sealevel;temperature;humidity
929;BME280;451;47.988;7.842;2022-08-19T00:03:39;98141.09;;;18.73;100.00
929;BME280;451;47.988;7.842;2022-08-19T00:12:41;98182.94;;;19.08;100.00
929;BME280;451;47.988;7.842;2022-08-19T00:21:43;98190.44;;;18.87;100.00
929;BME280;451;47.988;7.842;2022-08-19T00:30:45;98153.13;;;18.76;100.00
929;BME280;451;47.988;7.842;2022-08-19T00:39:47;98184.06;;;19.12;100.00
929;BME280;451;47.988;7.842;2022-08-19T00:48:49;98142.84;;;19.03;100.00
929;BME280;451;47.988;7.842;2022-08-19T00:58:00;98178.06;;;19.16;100.00
929;BME280;451;47.988;7.842;2022-08-19T01:07:03;98166.13;;;19.07;100.00
929;BME280;451;47.988;7.842;2022-08-19T01:16:08;98184.22;;;19.17;100.00
929;BME280;451;47.988;7.842;2022-08-19T01:25:16;98184.31;;;19.22;100.00
929;BME280;451;47.988;7.842;2022-08-19T01:34:19;98159.06;;;19.13;100.00
929;BME280;451;47.988;7.842;2022-08-19T01:43:20;98147.69;;;19.06;100.00
929;BME280;451;47.988;7.842;2022-08-19T01:52:22;98138.00;;;19.11;100.00
929;BME280;451;47.988;7.842;2022-08-19T02:01:24;98072.88;;;18.96;100.00
929;BME280;451;47.988;7.842;2022-08-19T02:10:25;98053.06;;;18.68;100.00
929;BME280;451;47.988;7.842;2022-08-19T02:19:27;98112.50;;;19.04;100.00
929;BME280;451;47.988;7.842;2022-08-19T02:28:29;98145.59;;;19.31;100.00
929;BME280;451;47.988;7.842;2022-08-19T02:37:31;98153.28;;;19.16;100.00
929;BME280;451;47.988;7.842;2022-08-19T02:46:51;98084.47;;;18.89;100.00
929;BME280;451;47.988;7.842;2022-08-19T02:55:53;98080.66;;;18.74;100.00
929;BME280;451;47.988;7.842;2022-08-19T03:04:55;98154.88;;;18.93;100.00
929;BME280;451;47.988;7.842;2022-08-19T03:13:58;98144.47;;;19.04;100.00
929;BME280;451;47.988;7.842;2022-08-19T03:23:02;98166.38;;;19.29;100.00
929;BME280;451;47.988;7.842;2022-08-19T03:32:05;98177.00;;;19.06;100.00
929;BME280;451;47.988;7.842;2022-08-19T03:41:11;98178.84;;;18.93;100.00
929;BME280;451;47.988;7.842;2022-08-19T03:50:13;98205.75;;;19.27;100.00
929;BME280;451;47.988;7.842;2022-08-19T03:59:34;98167.06;;;19.01;100.00
929;BME280;451;47.988;7.842;2022-08-19T04:08:37;98190.13;;;19.42;100.00
929;BME280;451;47.988;7.842;2022-08-19T04:17:38;98165.78;;;19.04;100.00
929;BME280;451;47.988;7.842;2022-08-19T04:26:42;98193.03;;;19.52;100.00
929;BME280;451;47.988;7.842;2022-08-19T04:35:46;98188.97;;;19.50;100.00
929;BME280;451;47.988;7.842;2022-08-19T04:44:49;98197.44;;;19.47;100.00
929;BME280;451;47.988;7.842;2022-08-19T04:53:52;98158.81;;;19.26;100.00
929;BME280;451;47.988;7.842;2022-08-19T05:02:53;98215.41;;;19.51;100.00
929;BME280;451;47.988;7.842;2022-08-19T05:11:55;98191.72;;;19.43;100.00
929;BME280;451;47.988;7.842;2022-08-19T05:20:57;98201.97;;;19.46;100.00
929;BME280;451;47.988;7.842;2022-08-19T05:30:17;98218.75;;;19.58;100.00
929;BME280;451;47.988;7.842;2022-08-19T05:39:20;98245.97;;;19.84;100.00
929;BME280;451;47.988;7.842;2022-08-19T05:48:22;98229.00;;;20.01;100.00
929;BME280;451;47.988;7.842;2022-08-19T05:57:24;98240.38;;;19.97;100.00
929;BME280;451;47.988;7.842;2022-08-19T06:06:26;98256.13;;;20.10;100.00
929;BME280;451;47.988;7.842;2022-08-19T06:15:27;98257.34;;;19.91;100.00
929;BME280;451;47.988;7.842;2022-08-19T06:24:29;98293.72;;;20.20;100.00
929;BME280;451;47.988;7.842;2022-08-19T06:33:32;98277.72;;;20.77;100.00
929;BME280;451;47.988;7.842;2022-08-19T06:42:34;98275.88;;;21.22;100.00
929;BME280;451;47.988;7.842;2022-08-19T06:51:38;98148.41;;;20.44;100.00
929;BME280;451;47.988;7.842;2022-08-19T07:00:40;98209.72;;;21.01;100.00
929;BME280;451;47.988;7.842;2022-08-19T07:09:43;98255.69;;;20.70;100.00
929;BME280;451;47.988;7.842;2022-08-19T07:18:46;98285.34;;;21.47;100.00
929;BME280;451;47.988;7.842;2022-08-19T07:27:49;98279.38;;;21.78;100.00
929;BME280;451;47.988;7.842;2022-08-19T07:36:53;98235.16;;;21.37;100.00
929;BME280;451;47.988;7.842;2022-08-19T07:45:55;98281.41;;;22.53;100.00
929;BME280;451;47.988;7.842;2022-08-19T07:55:00;98237.44;;;22.76;100.00
929;BME280;451;47.988;7.842;2022-08-19T08:04:06;98284.84;;;23.29;100.00
929;BME280;451;47.988;7.842;2022-08-19T08:13:27;98286.09;;;22.89;100.00
929;BME280;451;47.988;7.842;2022-08-19T08:22:30;98315.09;;;23.51;100.00
929;BME280;451;47.988;7.842;2022-08-19T08:31:50;98321.03;;;22.51;100.00
929;BME280;451;47.988;7.842;2022-08-19T08:40:59;98326.31;;;22.24;100.00
929;BME280;451;47.988;7.842;2022-08-19T08:50:08;98324.63;;;22.62;100.00
929;BME280;451;47.988;7.842;2022-08-19T08:59:21;98290.41;;;22.42;100.00
929;BME280;451;47.988;7.842;2022-08-19T09:17:38;98342.91;;;23.13;100.00
929;BME280;451;47.988;7.842;2022-08-19T09:26:40;98356.44;;;23.23;100.00
929;BME280;451;47.988;7.842;2022-08-19T09:35:41;98376.66;;;24.05;100.00
929;BME280;451;47.988;7.842;2022-08-19T09:44:44;98365.19;;;23.14;100.00
929;BME280;451;47.988;7.842;2022-08-19T09:53:47;98384.06;;;23.83;100.00
929;BME280;451;47.988;7.842;2022-08-19T10:02:51;98380.28;;;24.73;100.00
929;BME280;451;47.988;7.842;2022-08-19T10:11:53;98379.16;;;24.59;100.00
929;BME280;451;47.988;7.842;2022-08-19T10:21:07;98373.97;;;25.19;100.00
929;BME280;451;47.988;7.842;2022-08-19T10:30:10;98378.56;;;25.29;100.00
929;BME280;451;47.988;7.842;2022-08-19T10:39:12;98289.03;;;24.46;100.00
929;BME280;451;47.988;7.842;2022-08-19T10:48:14;98381.00;;;25.86;100.00
929;BME280;451;47.988;7.842;2022-08-19T10:57:15;98383.19;;;25.69;100.00
929;BME280;451;47.988;7.842;2022-08-19T11:06:18;98374.53;;;26.07;99.23
929;BME280;451;47.988;7.842;2022-08-19T11:15:21;98346.34;;;27.13;94.76
929;BME280;451;47.988;7.842;2022-08-19T11:24:24;98340.22;;;27.03;93.59
929;BME280;451;47.988;7.842;2022-08-19T11:33:26;98310.28;;;26.45;90.15
929;BME280;451;47.988;7.842;2022-08-19T11:42:28;98345.34;;;26.40;97.19
929;BME280;451;47.988;7.842;2022-08-19T11:51:48;98355.25;;;26.60;97.92
929;BME280;451;47.988;7.842;2022-08-19T12:00:52;98367.44;;;27.45;82.60
929;BME280;451;47.988;7.842;2022-08-19T12:09:54;98344.22;;;27.78;88.76
929;BME280;451;47.988;7.842;2022-08-19T12:18:56;98344.63;;;27.61;81.73
929;BME280;451;47.988;7.842;2022-08-19T12:27:59;98357.91;;;26.70;82.29
929;BME280;451;47.988;7.842;2022-08-19T12:37:02;98354.81;;;26.97;84.67
929;BME280;451;47.988;7.842;2022-08-19T12:46:05;98349.19;;;27.95;81.35
929;BME280;451;47.988;7.842;2022-08-19T12:55:08;98352.91;;;27.36;75.18
929;BME280;451;47.988;7.842;2022-08-19T13:04:10;98356.72;;;28.27;75.32
929;BME280;451;47.988;7.842;2022-08-19T13:13:12;98321.47;;;27.55;78.02
929;BME280;451;47.988;7.842;2022-08-19T13:22:14;98227.34;;;26.17;87.72
929;BME280;451;47.988;7.842;2022-08-19T13:31:18;98331.75;;;27.53;81.69
929;BME280;451;47.988;7.842;2022-08-19T13:40:39;98320.28;;;27.66;81.79
929;BME280;451;47.988;7.842;2022-08-19T13:49:41;98314.19;;;27.85;77.74
929;BME280;451;47.988;7.842;2022-08-19T13:58:44;98306.16;;;27.75;78.34
929;BME280;451;47.988;7.842;2022-08-19T14:07:45;98283.84;;;27.88;74.07
929;BME280;451;47.988;7.842;2022-08-19T14:16:47;98272.25;;;27.29;73.57
929;BME280;451;47.988;7.842;2022-08-19T14:25:49;98337.00;;;26.96;77.80
929;BME280;451;47.988;7.842;2022-08-19T14:34:51;98344.28;;;26.36;83.23
929;BME280;451;47.988;7.842;2022-08-19T14:43:53;98356.72;;;25.05;100.00
929;BME280;451;47.988;7.842;2022-08-19T14:53:05;98350.88;;;24.46;100.00
929;BME280;451;47.988;7.842;2022-08-19T15:02:08;98355.78;;;24.74;100.00
929;BME280;451;47.988;7.842;2022-08-19T15:11:15;98345.69;;;24.29;100.00
929;BME280;451;47.988;7.842;2022-08-19T15:20:19;98357.31;;;24.45;100.00
929;BME280;451;47.988;7.842;2022-08-19T15:29:22;98312.88;;;24.27;100.00
929;BME280;451;47.988;7.842;2022-08-19T15:38:28;98338.59;;;24.70;100.00
929;BME280;451;47.988;7.842;2022-08-19T15:47:29;98324.78;;;24.41;100.00
929;BME280;451;47.988;7.842;2022-08-19T15:56:31;98356.34;;;24.71;100.00
929;BME280;451;47.988;7.842;2022-08-19T16:05:52;98341.16;;;25.48;100.00
929;BME280;451;47.988;7.842;2022-08-19T16:15:12;98201.13;;;25.43;96.34
929;BME280;451;47.988;7.842;2022-08-19T16:24:17;98302.66;;;25.73;96.99
929;BME280;451;47.988;7.842;2022-08-19T16:33:19;98341.69;;;25.75;96.89
929;BME280;451;47.988;7.842;2022-08-19T16:42:21;98317.44;;;25.90;92.74
929;BME280;451;47.988;7.842;2022-08-19T16:51:23;98345.28;;;26.60;88.75
929;BME280;451;47.988;7.842;2022-08-19T17:00:24;98291.38;;;26.45;86.90
929;BME280;451;47.988;7.842;2022-08-19T17:09:26;98345.63;;;26.33;88.29
929;BME280;451;47.988;7.842;2022-08-19T17:18:29;98337.66;;;25.78;91.01
929;BME280;451;47.988;7.842;2022-08-19T17:27:33;98380.09;;;24.95;99.17
929;BME280;451;47.988;7.842;2022-08-19T17:36:34;98361.88;;;24.44;100.00
929;BME280;451;47.988;7.842;2022-08-19T17:45:37;98367.44;;;24.28;100.00
929;BME280;451;47.988;7.842;2022-08-19T17:54:39;98371.63;;;24.13;100.00
929;BME280;451;47.988;7.842;2022-08-19T18:03:41;98390.19;;;23.78;100.00
929;BME280;451;47.988;7.842;2022-08-19T18:12:44;98401.88;;;23.62;100.00
929;BME280;451;47.988;7.842;2022-08-19T18:21:45;98410.47;;;23.37;100.00
929;BME280;451;47.988;7.842;2022-08-19T18:30:47;98412.25;;;23.26;100.00
929;BME280;451;47.988;7.842;2022-08-19T18:39:49;98418.22;;;23.07;100.00
929;BME280;451;47.988;7.842;2022-08-19T18:49:14;98422.38;;;22.54;100.00
929;BME280;451;47.988;7.842;2022-08-19T18:58:16;98439.50;;;22.15;100.00
929;BME280;451;47.988;7.842;2022-08-19T19:07:17;98430.41;;;21.65;100.00
929;BME280;451;47.988;7.842;2022-08-19T19:16:19;98415.59;;;21.29;100.00
929;BME280;451;47.988;7.842;2022-08-19T19:25:22;98459.81;;;21.20;100.00
929;BME280;451;47.988;7.842;2022-08-19T19:34:24;98415.69;;;20.66;100.00
929;BME280;451;47.988;7.842;2022-08-19T19:43:25;98445.84;;;20.78;100.00
929;BME280;451;47.988;7.842;2022-08-19T19:52:28;98456.47;;;20.38;100.00
929;BME280;451;47.988;7.842;2022-08-19T20:01:31;98452.63;;;20.11;100.00
929;BME280;451;47.988;7.842;2022-08-19T20:10:33;98494.66;;;20.50;100.00
929;BME280;451;47.988;7.842;2022-08-19T20:19:35;98502.00;;;20.67;100.00
929;BME280;451;47.988;7.842;2022-08-19T20:28:37;98485.72;;;20.57;100.00
929;BME280;451;47.988;7.842;2022-08-19T20:37:39;98527.63;;;20.68;100.00
929;BME280;451;47.988;7.842;2022-08-19T20:46:41;98540.78;;;20.46;100.00
929;BME280;451;47.988;7.842;2022-08-19T20:55:45;98543.13;;;20.42;100.00
929;BME280;451;47.988;7.842;2022-08-19T21:04:47;98509.72;;;20.10;100.00
929;BME280;451;47.988;7.842;2022-08-19T21:13:48;98545.66;;;19.96;100.00
929;BME280;451;47.988;7.842;2022-08-19T21:22:50;98550.22;;;20.07;100.00
929;BME280;451;47.988;7.842;2022-08-19T21:31:51;98527.81;;;19.96;100.00
929;BME280;451;47.988;7.842;2022-08-19T21:40:54;98556.03;;;20.04;100.00
929;BME280;451;47.988;7.842;2022-08-19T21:49:56;98506.56;;;19.48;100.00
929;BME280;451;47.988;7.842;2022-08-19T21:58:57;98574.78;;;19.86;100.00
929;BME280;451;47.988;7.842;2022-08-19T22:08:00;98573.84;;;19.62;100.00
929;BME280;451;47.988;7.842;2022-08-19T22:17:02;98575.69;;;19.43;100.00
929;BME280;451;47.988;7.842;2022-08-19T22:26:05;98525.22;;;18.93;100.00
929;BME280;451;47.988;7.842;2022-08-19T22:35:07;98568.19;;;19.22;100.00
929;BME280;451;47.988;7.842;2022-08-19T22:44:09;98567.22;;;19.34;100.00
929;BME280;451;47.988;7.842;2022-08-19T22:53:11;98561.34;;;19.08;100.00
929;BME280;451;47.988;7.842;2022-08-19T23:02:30;98563.66;;;19.22;100.00
929;BME280;451;47.988;7.842;2022-08-19T23:11:34;98569.50;;;19.13;100.00
929;BME280;451;47.988;7.842;2022-08-19T23:20:38;98518.53;;;18.48;100.00
929;BME280;451;47.988;7.842;2022-08-19T23:29:40;98528.72;;;18.51;100.00
929;BME280;451;47.988;7.842;2022-08-19T23:39:00;98557.66;;;18.72;100.00
929;BME280;451;47.988;7.842;2022-08-19T23:48:02;98557.47;;;18.42;100.00
929;BME280;451;47.988;7.842;2022-08-19T23:57:04;98552.47;;;18.28;100.00
